createdAt,value
2022-09-12T06:44:53.296Z,96184.53
2022-09-12T07:00:19.033Z,96181.34
2022-09-12T07:02:50.658Z,96194.56
2022-09-12T07:05:21.915Z,96194.94
2022-09-12T07:08:04.221Z,96191.16
2022-09-12T07:10:36.553Z,96188.38
2022-09-12T07:13:05.155Z,96193.34
2022-09-12T07:15:37.843Z,96195.25
2022-09-12T07:18:11.408Z,96196.56
2022-09-12T07:20:43.397Z,96194.16
2022-09-12T07:23:17.987Z,96193.13
2022-09-12T07:25:57.849Z,96202.44
2022-09-12T07:28:45.916Z,96206.34
2022-09-12T07:31:35.234Z,96212.19
2022-09-12T07:37:04.060Z,96208.53
2022-09-12T07:39:32.537Z,96206.47
2022-09-12T07:42:02.395Z,96219.41
2022-09-12T07:44:32.105Z,96216.22
2022-09-12T07:47:16.732Z,96213.09
2022-09-12T07:49:45.849Z,96208.44
2022-09-12T07:52:15.388Z,96205.78
2022-09-12T07:54:45.789Z,96218.56
2022-09-12T07:57:28.765Z,96222.56
2022-09-12T07:59:58.926Z,96200.72
2022-09-12T08:02:39.453Z,96208.19
2022-09-12T08:05:20.926Z,96215.16
2022-09-12T08:07:55.813Z,96212.94
2022-09-12T08:10:38.159Z,96212.16
2022-09-12T08:13:09.400Z,96214.69
2022-09-12T08:15:46.806Z,96210.75
2022-09-12T08:18:21.622Z,96219.56
2022-09-12T08:20:50.082Z,96205.47
2022-09-12T08:23:21.324Z,96211.63
2022-09-12T08:25:53.083Z,96214.88
2022-09-12T08:28:24.437Z,96218.13
2022-09-12T08:30:52.918Z,96207.28
2022-09-12T08:33:22.932Z,96212.00
2022-09-12T08:35:51.579Z,96201.28
2022-09-12T08:38:20.011Z,96201.91
2022-09-12T08:40:54.805Z,96203.66
2022-09-12T08:43:33.614Z,96203.16
2022-09-12T08:46:06.546Z,96204.88
2022-09-12T08:48:36.685Z,96210.38
2022-09-12T08:51:06.191Z,96206.28
2022-09-12T08:53:37.439Z,96203.28
2022-09-12T08:56:08.691Z,96201.75
2022-09-12T08:58:41.950Z,96204.66
2022-09-12T09:01:15.570Z,96196.31
2022-09-12T09:04:10.921Z,96198.38
2022-09-12T09:07:07.206Z,96203.88
2022-09-12T09:09:45.778Z,96205.50
2022-09-12T09:12:18.752Z,96196.59
2022-09-12T09:15:14.989Z,96195.47
2022-09-12T09:17:44.948Z,96190.78
2022-09-12T09:20:22.422Z,96188.63
2022-09-12T09:22:53.578Z,96178.38
2022-09-12T09:25:25.193Z,96175.31
2022-09-12T09:27:59.327Z,96181.06
2022-09-12T09:30:28.961Z,96184.41
2022-09-12T09:33:00.146Z,96185.00
2022-09-12T09:35:39.104Z,96179.34
2022-09-12T09:38:20.103Z,96179.94
2022-09-12T09:40:55.388Z,96177.94
2022-09-12T09:43:24.696Z,96174.25
2022-09-12T09:45:54.357Z,96184.09
2022-09-12T09:48:32.143Z,96184.47
2022-09-12T09:51:04.044Z,96175.25
2022-09-12T09:53:40.944Z,96167.34
2022-09-12T09:56:15.524Z,96176.75
2022-09-12T09:58:55.065Z,96178.69
2022-09-12T10:01:41.678Z,96177.28
2022-09-12T10:04:24.455Z,96167.28
2022-09-12T10:06:56.628Z,96166.19
2022-09-12T10:09:34.319Z,96166.44
2022-09-12T10:12:36.652Z,96162.41
2022-09-12T10:15:21.946Z,96158.78
2022-09-12T10:17:51.949Z,96161.09
2022-09-12T10:20:39.225Z,96166.19
2022-09-12T10:23:37.942Z,96165.53
2022-09-12T10:26:23.611Z,96161.25
2022-09-12T10:29:27.073Z,96165.47
2022-09-12T10:32:52.636Z,96156.88
2022-09-12T10:35:53.931Z,96158.81
2022-09-12T10:39:05.601Z,96159.91
2022-09-12T10:41:57.631Z,96154.56
2022-09-12T10:44:51.618Z,96150.34
2022-09-12T10:50:33.523Z,96144.56
2022-09-12T10:53:34.339Z,96143.72
2022-09-12T10:56:33.712Z,96146.56
2022-09-12T10:59:25.059Z,96137.72
2022-09-12T11:02:04.448Z,96154.88
2022-09-12T11:11:33.605Z,96141.28
2022-09-12T11:14:15.919Z,96142.19
2022-09-12T11:17:01.157Z,96144.16
2022-09-12T11:19:56.387Z,96152.50
2022-09-12T11:22:56.172Z,96154.47
2022-09-12T11:25:33.324Z,96153.50
2022-09-12T11:28:45.362Z,96148.09
2022-09-12T11:32:17.050Z,96151.25
2022-09-12T11:35:02.814Z,96147.72
2022-09-12T11:37:47.704Z,96147.28
2022-09-12T11:40:33.731Z,96153.03
2022-09-12T11:43:11.962Z,96148.28
2022-09-12T11:46:02.772Z,96139.25
2022-09-12T11:51:56.782Z,96129.91
2022-09-12T11:57:37.746Z,96145.34
2022-09-12T12:00:10.422Z,96142.59
2022-09-12T12:05:46.353Z,96136.69
2022-09-12T12:08:16.207Z,96134.88
2022-09-12T12:10:46.978Z,96133.66
2022-09-12T12:13:20.866Z,96131.03
2022-09-12T12:15:50.886Z,96119.50
2022-09-12T12:18:20.903Z,96122.09
2022-09-12T12:20:49.480Z,96126.34
2022-09-12T12:24:04.042Z,96131.41
2022-09-12T12:27:00.583Z,96140.09
2022-09-12T12:29:43.840Z,96140.47
2022-09-12T12:32:24.299Z,96132.66
2022-09-12T12:35:18.694Z,96128.44
2022-09-12T12:37:56.131Z,96116.09
2022-09-12T12:40:29.507Z,96113.72
2022-09-12T12:43:06.335Z,96115.09
2022-09-12T12:46:12.430Z,96108.16
2022-09-12T12:48:51.690Z,96110.63
2022-09-12T12:51:49.589Z,96111.59
2022-09-12T12:54:33.910Z,96109.34
2022-09-12T12:57:22.008Z,96111.22
2022-09-12T12:59:53.685Z,96113.72
2022-09-12T13:02:30.459Z,96106.59
2022-09-12T13:05:00.996Z,96108.97
2022-09-12T13:07:34.629Z,96105.34
2022-09-12T13:10:05.950Z,96104.22
2022-09-12T13:12:38.325Z,96104.13
2022-09-12T13:15:43.498Z,96094.84
2022-09-12T13:18:14.100Z,96095.19
2022-09-12T13:20:49.820Z,96093.34
2022-09-12T13:23:26.355Z,96090.00
2022-09-12T13:25:56.183Z,96088.53
2022-09-12T13:28:27.763Z,96098.28
2022-09-12T13:31:05.179Z,96091.38
2022-09-12T13:33:38.075Z,96093.28
2022-09-12T13:36:23.834Z,96091.19
2022-09-12T13:39:03.598Z,96085.38
2022-09-12T13:41:42.802Z,96088.06
2022-09-12T13:44:15.245Z,96074.59
2022-09-12T13:46:44.329Z,96071.16
2022-09-12T13:49:24.126Z,96073.59
2022-09-12T13:52:01.670Z,96063.91
2022-09-12T13:54:30.790Z,96066.59
2022-09-12T13:56:59.957Z,96064.34
2022-09-12T13:59:30.047Z,96069.47
2022-09-12T14:01:58.748Z,96070.31
2022-09-12T14:04:49.982Z,96058.00
2022-09-12T14:07:23.367Z,96063.41
2022-09-12T14:10:01.236Z,96053.69
2022-09-12T14:12:34.853Z,96062.63
2022-09-12T14:15:09.757Z,96071.50
2022-09-12T14:17:40.261Z,96065.88
2022-09-12T14:20:13.685Z,96059.56
2022-09-12T14:22:42.922Z,96065.53
2022-09-12T14:25:16.304Z,96065.25
2022-09-12T14:27:47.935Z,96059.28
2022-09-12T14:30:25.715Z,96057.69
2022-09-12T14:33:17.744Z,96063.09
2022-09-12T14:35:47.630Z,96066.41
2022-09-12T14:38:25.986Z,96068.75
2022-09-12T14:41:01.171Z,96073.50
2022-09-12T14:43:31.325Z,96067.00
2022-09-12T14:46:03.237Z,96071.78
2022-09-12T14:48:33.751Z,96070.63
2022-09-12T14:51:02.682Z,96063.81
2022-09-12T14:53:35.825Z,96064.50
2022-09-12T14:56:12.224Z,96046.34
2022-09-12T14:58:41.295Z,96051.47
2022-09-12T15:01:28.415Z,96050.75
2022-09-12T15:03:59.932Z,96045.22
2022-09-12T15:06:31.241Z,96049.88
2022-09-12T15:09:04.156Z,96052.06
2022-09-12T15:11:34.172Z,96044.81
2022-09-12T15:14:13.157Z,96047.66
2022-09-12T15:16:46.028Z,96051.47
2022-09-12T15:19:15.329Z,96054.06
2022-09-12T15:21:43.812Z,96049.88
2022-09-12T15:24:12.515Z,96054.84
2022-09-12T15:26:40.880Z,96051.09
2022-09-12T15:29:09.133Z,96044.16
2022-09-12T15:31:37.446Z,96039.66
2022-09-12T15:34:08.373Z,96049.06
2022-09-12T15:36:37.138Z,96051.03
2022-09-12T15:39:06.143Z,96048.72
2022-09-12T15:41:37.088Z,96044.75
2022-09-12T15:44:06.313Z,96044.88
2022-09-12T15:46:34.967Z,96046.41
2022-09-12T15:49:03.755Z,96044.81
2022-09-12T15:51:34.299Z,96045.84
2022-09-12T15:54:06.420Z,96036.50
2022-09-12T15:56:35.118Z,96039.13
2022-09-12T15:59:03.713Z,96043.88
2022-09-12T16:01:32.120Z,96041.03
2022-09-12T16:04:01.292Z,96045.13
2022-09-12T16:06:37.283Z,96045.19
2022-09-12T16:09:07.752Z,96048.69
2022-09-12T16:11:37.844Z,96049.38
2022-09-12T16:14:06.829Z,96053.28
2022-09-12T16:16:35.719Z,96060.41
2022-09-12T16:19:04.958Z,96041.81
2022-09-12T16:21:35.071Z,96048.50
2022-09-12T16:24:03.677Z,96045.94
2022-09-12T16:26:32.519Z,96038.63
2022-09-12T16:29:02.246Z,96036.03
2022-09-12T16:31:31.109Z,96031.69
2022-09-12T16:33:59.662Z,96043.88
2022-09-12T16:36:28.197Z,96036.59
2022-09-12T16:39:00.952Z,96039.34
2022-09-12T16:41:29.915Z,96041.63
2022-09-12T16:43:58.542Z,96047.31
2022-09-12T16:46:29.969Z,96046.19
2022-09-12T16:48:59.563Z,96035.66
2022-09-12T16:51:30.187Z,96038.56
2022-09-12T16:53:59.044Z,96041.81
2022-09-12T16:56:29.797Z,96040.22
2022-09-12T16:58:57.957Z,96047.19
2022-09-12T17:01:27.429Z,96044.75
2022-09-12T17:03:57.183Z,96043.16
2022-09-12T17:06:27.214Z,96043.31
2022-09-12T17:08:57.014Z,96037.34
2022-09-12T17:11:26.760Z,96034.88
2022-09-12T17:14:04.882Z,96047.47
2022-09-12T17:16:34.361Z,96046.97
2022-09-12T17:19:02.642Z,96045.81
2022-09-12T17:21:31.134Z,96052.09
2022-09-12T17:24:00.876Z,96038.50
2022-09-12T17:26:29.543Z,96046.28
2022-09-12T17:28:59.743Z,96049.66
2022-09-12T17:31:41.828Z,96057.53
2022-09-12T17:34:14.404Z,96050.06
2022-09-12T17:36:44.364Z,96051.00
2022-09-12T17:39:13.903Z,96049.56
2022-09-12T17:41:44.179Z,96054.81
2022-09-12T17:44:18.311Z,96055.94
2022-09-12T17:46:48.921Z,96061.91
2022-09-12T17:49:22.104Z,96054.81
2022-09-12T17:51:56.833Z,96053.03
2022-09-12T17:54:27.819Z,96044.28
2022-09-12T17:56:56.506Z,96058.97
2022-09-12T17:59:26.731Z,96053.91
2022-09-12T18:02:14.904Z,96055.00
2022-09-12T18:07:39.898Z,96058.41
2022-09-12T18:10:19.881Z,96061.72
2022-09-12T18:12:50.982Z,96061.88
2022-09-12T18:15:21.166Z,96063.63
2022-09-12T18:17:49.959Z,96061.06
2022-09-12T18:20:19.797Z,96062.84
2022-09-12T18:22:51.744Z,96058.41
2022-09-12T18:25:20.206Z,96064.09
2022-09-12T18:27:51.800Z,96066.31
2022-09-12T18:30:23.515Z,96065.59
2022-09-12T18:32:52.063Z,96065.75
2022-09-12T18:35:30.292Z,96066.50
2022-09-12T18:37:58.994Z,96061.28
2022-09-12T18:40:27.938Z,96064.28
2022-09-12T18:42:59.208Z,96064.72
2022-09-12T18:45:35.056Z,96072.47
2022-09-12T18:48:06.755Z,96067.63
2022-09-12T18:50:45.480Z,96078.09
2022-09-12T18:53:15.692Z,96074.59
2022-09-12T18:55:45.565Z,96076.50
2022-09-12T18:58:14.482Z,96065.84
2022-09-12T19:00:48.612Z,96082.00
2022-09-12T19:03:19.536Z,96083.53
2022-09-12T19:05:51.105Z,96078.22
2022-09-12T19:08:20.048Z,96085.34
2022-09-12T19:10:56.949Z,96084.38
2022-09-12T19:13:25.903Z,96078.53
2022-09-12T19:15:55.866Z,96078.16
2022-09-12T19:18:24.814Z,96080.38
2022-09-12T19:21:08.662Z,96074.97
2022-09-12T19:23:37.926Z,96078.00
2022-09-12T19:26:09.371Z,96078.94
2022-09-12T19:28:40.518Z,96073.09
2022-09-12T19:31:13.129Z,96077.19
2022-09-12T19:33:47.242Z,96074.06
2022-09-12T19:36:41.259Z,96065.81
2022-09-12T19:39:09.003Z,96070.44
2022-09-12T19:41:39.377Z,96071.53
2022-09-12T19:44:09.500Z,96066.00
2022-09-12T19:46:43.854Z,96068.72
2022-09-12T19:49:13.258Z,96068.84
2022-09-12T19:51:42.571Z,96072.69
2022-09-12T19:54:11.843Z,96065.06
2022-09-12T19:56:43.318Z,96062.66
2022-09-12T19:59:12.526Z,96058.47
2022-09-12T20:01:43.301Z,96063.22
2022-09-12T20:04:12.860Z,96064.31
2022-09-12T20:06:41.456Z,96065.28
2022-09-12T20:09:09.816Z,96069.47
2022-09-12T20:11:38.597Z,96070.59
2022-09-12T20:14:07.955Z,96063.25
2022-09-12T20:16:37.922Z,96068.16
2022-09-12T20:19:08.840Z,96064.13
2022-09-12T20:21:37.854Z,96071.31
2022-09-12T20:24:16.829Z,96062.25
2022-09-12T20:26:50.745Z,96060.88
2022-09-12T20:29:31.697Z,96051.16
2022-09-12T20:32:06.335Z,96049.91
2022-09-12T20:34:45.407Z,96054.38
2022-09-12T20:37:14.106Z,96046.97
2022-09-12T20:42:41.216Z,96054.19
2022-09-12T20:45:13.414Z,96052.72
2022-09-12T20:47:52.140Z,96047.84
2022-09-12T20:50:23.150Z,96048.91
2022-09-12T20:52:57.313Z,96041.22
2022-09-12T20:55:28.170Z,96046.34
2022-09-12T20:58:22.597Z,96049.06
2022-09-12T21:01:03.542Z,96048.78
2022-09-12T21:03:58.773Z,96047.19
2022-09-12T21:09:42.460Z,96050.19
2022-09-12T21:12:41.310Z,96056.25
2022-09-12T21:15:42.465Z,96058.03
2022-09-12T21:21:11.774Z,96060.47
2022-09-12T21:27:28.211Z,96053.69
2022-09-12T21:33:05.787Z,96063.69
2022-09-12T21:35:59.154Z,96059.09
2022-09-12T21:38:31.638Z,96065.47
2022-09-12T21:44:25.345Z,96077.50
2022-09-12T21:46:58.208Z,96073.28
2022-09-12T21:49:45.846Z,96070.84
2022-09-12T21:52:29.970Z,96060.81
2022-09-12T21:55:10.254Z,96063.53
2022-09-12T21:57:41.846Z,96057.28
2022-09-12T22:00:18.141Z,96054.03
2022-09-12T22:03:01.678Z,96053.34
2022-09-12T22:09:19.375Z,96052.22
2022-09-12T22:12:17.550Z,96049.50
2022-09-12T22:15:12.746Z,96052.19
2022-09-12T22:18:13.069Z,96052.06
2022-09-12T22:21:08.079Z,96038.50
2022-09-12T22:23:55.702Z,96047.06
2022-09-12T22:29:19.366Z,96034.06
2022-09-12T22:31:56.486Z,96029.97
2022-09-12T22:34:49.729Z,96030.81
2022-09-12T22:37:23.727Z,96031.03
2022-09-12T22:42:57.170Z,96036.16
2022-09-12T22:45:27.305Z,96040.63
2022-09-12T22:48:00.417Z,96041.84
2022-09-12T22:50:45.109Z,96032.34
2022-09-12T22:53:37.762Z,96025.47
2022-09-12T22:59:10.024Z,96022.91
2022-09-12T23:01:40.914Z,96021.94
2022-09-12T23:04:09.252Z,96025.72
2022-09-12T23:06:37.630Z,96017.34
2022-09-12T23:09:13.610Z,96019.63
2022-09-12T23:11:44.610Z,96018.41
2022-09-12T23:14:41.740Z,96011.91
2022-09-12T23:17:14.400Z,96007.84
2022-09-12T23:19:44.118Z,96005.66
2022-09-12T23:22:25.910Z,96004.72
2022-09-12T23:25:00.390Z,96005.25
2022-09-12T23:27:29.973Z,96000.38
2022-09-12T23:30:11.228Z,95993.88
2022-09-12T23:32:39.854Z,95995.72
2022-09-12T23:35:16.080Z,96000.75
2022-09-12T23:37:49.567Z,95994.13
2022-09-12T23:40:22.826Z,95996.69
2022-09-12T23:42:51.350Z,95997.75
2022-09-12T23:45:22.815Z,95997.19
2022-09-12T23:47:51.204Z,95993.69
2022-09-12T23:56:09.792Z,95994.88
2022-09-12T23:58:40.824Z,95995.84
